sensor_id;sensor_type;location;lat;lon;timestamp;P1;durP1;ratioP1;P2;durP2;ratioP2
11907;SDS011;6014;47.690;9.130;2022-08-23T00:00:26;5.50;;;3.33;;
11907;SDS011;6014;47.690;9.130;2022-08-23T00:02:55;6.13;;;3.50;;
11907;SDS011;6014;47.690;9.130;2022-08-23T00:05:25;7.43;;;3.63;;
11907;SDS011;6014;47.690;9.130;2022-08-23T00:07:53;8.25;;;3.35;;
11907;SDS011;6014;47.690;9.130;2022-08-23T00:10:22;5.93;;;3.30;;
11907;SDS011;6014;47.690;9.130;2022-08-23T00:12:52;6.38;;;3.78;;
11907;SDS011;6014;47.690;9.130;2022-08-23T00:15:20;7.83;;;4.00;;
11907;SDS011;6014;47.690;9.130;2022-08-23T00:17:49;6.82;;;3.33;;
11907;SDS011;6014;47.690;9.130;2022-08-23T00:20:18;8.38;;;3.75;;
11907;SDS011;6014;47.690;9.130;2022-08-23T00:22:46;6.37;;;3.37;;
11907;SDS011;6014;47.690;9.130;2022-08-23T00:25:16;8.47;;;3.80;;
11907;SDS011;6014;47.690;9.130;2022-08-23T00:27:46;6.87;;;3.40;;
11907;SDS011;6014;47.690;9.130;2022-08-23T00:30:16;7.45;;;3.63;;
11907;SDS011;6014;47.690;9.130;2022-08-23T00:32:45;6.15;;;3.50;;
11907;SDS011;6014;47.690;9.130;2022-08-23T00:35:14;6.57;;;3.20;;
11907;SDS011;6014;47.690;9.130;2022-08-23T00:37:52;6.63;;;3.83;;
11907;SDS011;6014;47.690;9.130;2022-08-23T00:40:41;6.67;;;3.30;;
11907;SDS011;6014;47.690;9.130;2022-08-23T00:43:10;8.53;;;3.70;;
11907;SDS011;6014;47.690;9.130;2022-08-23T00:45:59;6.77;;;3.87;;
11907;SDS011;6014;47.690;9.130;2022-08-23T00:48:47;5.73;;;3.30;;
11907;SDS011;6014;47.690;9.130;2022-08-23T00:51:17;6.50;;;3.20;;
11907;SDS011;6014;47.690;9.130;2022-08-23T00:53:47;7.37;;;4.07;;
11907;SDS011;6014;47.690;9.130;2022-08-23T00:56:17;9.10;;;4.07;;
11907;SDS011;6014;47.690;9.130;2022-08-23T00:58:46;6.60;;;3.10;;
11907;SDS011;6014;47.690;9.130;2022-08-23T01:01:16;6.73;;;3.23;;
11907;SDS011;6014;47.690;9.130;2022-08-23T01:03:48;5.87;;;3.20;;
11907;SDS011;6014;47.690;9.130;2022-08-23T01:06:31;6.87;;;3.70;;
11907;SDS011;6014;47.690;9.130;2022-08-23T01:09:03;7.20;;;3.33;;
11907;SDS011;6014;47.690;9.130;2022-08-23T01:11:33;6.50;;;3.70;;
11907;SDS011;6014;47.690;9.130;2022-08-23T01:14:05;6.20;;;3.80;;
11907;SDS011;6014;47.690;9.130;2022-08-23T01:16:38;5.53;;;3.63;;
11907;SDS011;6014;47.690;9.130;2022-08-23T01:19:12;8.40;;;3.97;;
11907;SDS011;6014;47.690;9.130;2022-08-23T01:21:43;8.57;;;4.53;;
11907;SDS011;6014;47.690;9.130;2022-08-23T01:24:15;5.50;;;3.30;;
11907;SDS011;6014;47.690;9.130;2022-08-23T01:27:04;9.73;;;3.73;;
11907;SDS011;6014;47.690;9.130;2022-08-23T01:29:32;5.93;;;3.40;;
11907;SDS011;6014;47.690;9.130;2022-08-23T01:32:01;7.10;;;3.53;;
11907;SDS011;6014;47.690;9.130;2022-08-23T01:34:30;8.37;;;3.73;;
11907;SDS011;6014;47.690;9.130;2022-08-23T01:37:03;6.50;;;3.70;;
11907;SDS011;6014;47.690;9.130;2022-08-23T01:39:33;5.80;;;3.80;;
11907;SDS011;6014;47.690;9.130;2022-08-23T01:42:02;7.20;;;4.03;;
11907;SDS011;6014;47.690;9.130;2022-08-23T01:44:33;9.03;;;3.80;;
11907;SDS011;6014;47.690;9.130;2022-08-23T01:47:01;9.20;;;5.10;;
11907;SDS011;6014;47.690;9.130;2022-08-23T01:49:31;6.63;;;3.63;;
11907;SDS011;6014;47.690;9.130;2022-08-23T01:52:00;6.83;;;4.17;;
11907;SDS011;6014;47.690;9.130;2022-08-23T01:54:28;8.23;;;3.93;;
11907;SDS011;6014;47.690;9.130;2022-08-23T01:56:58;5.73;;;3.77;;
11907;SDS011;6014;47.690;9.130;2022-08-23T01:59:26;7.17;;;4.20;;
11907;SDS011;6014;47.690;9.130;2022-08-23T02:01:55;7.43;;;4.00;;
11907;SDS011;6014;47.690;9.130;2022-08-23T02:04:24;5.83;;;3.50;;
11907;SDS011;6014;47.690;9.130;2022-08-23T02:06:52;7.47;;;4.23;;
11907;SDS011;6014;47.690;9.130;2022-08-23T02:09:21;7.53;;;4.17;;
11907;SDS011;6014;47.690;9.130;2022-08-23T02:11:51;6.47;;;4.30;;
11907;SDS011;6014;47.690;9.130;2022-08-23T02:14:21;6.87;;;4.40;;
11907;SDS011;6014;47.690;9.130;2022-08-23T02:16:50;7.07;;;4.20;;
11907;SDS011;6014;47.690;9.130;2022-08-23T02:19:30;6.13;;;4.07;;
11907;SDS011;6014;47.690;9.130;2022-08-23T02:21:58;8.10;;;3.90;;
11907;SDS011;6014;47.690;9.130;2022-08-23T02:24:27;6.90;;;3.83;;
11907;SDS011;6014;47.690;9.130;2022-08-23T02:26:59;7.17;;;4.27;;
11907;SDS011;6014;47.690;9.130;2022-08-23T02:29:29;8.10;;;3.97;;
11907;SDS011;6014;47.690;9.130;2022-08-23T02:31:58;7.17;;;4.00;;
11907;SDS011;6014;47.690;9.130;2022-08-23T02:34:27;7.63;;;3.90;;
11907;SDS011;6014;47.690;9.130;2022-08-23T02:36:56;6.17;;;3.90;;
11907;SDS011;6014;47.690;9.130;2022-08-23T02:39:25;6.30;;;3.87;;
11907;SDS011;6014;47.690;9.130;2022-08-23T02:41:53;8.13;;;4.30;;
11907;SDS011;6014;47.690;9.130;2022-08-23T02:44:22;7.53;;;4.33;;
11907;SDS011;6014;47.690;9.130;2022-08-23T02:46:53;5.93;;;3.70;;
11907;SDS011;6014;47.690;9.130;2022-08-23T02:49:22;6.20;;;3.87;;
11907;SDS011;6014;47.690;9.130;2022-08-23T02:51:50;7.70;;;4.00;;
11907;SDS011;6014;47.690;9.130;2022-08-23T02:54:19;7.10;;;3.97;;
11907;SDS011;6014;47.690;9.130;2022-08-23T02:56:47;5.40;;;3.93;;
11907;SDS011;6014;47.690;9.130;2022-08-23T02:59:18;6.53;;;3.97;;
11907;SDS011;6014;47.690;9.130;2022-08-23T03:01:46;7.07;;;4.27;;
11907;SDS011;6014;47.690;9.130;2022-08-23T03:04:16;6.80;;;4.80;;
11907;SDS011;6014;47.690;9.130;2022-08-23T03:06:45;7.57;;;4.30;;
11907;SDS011;6014;47.690;9.130;2022-08-23T03:09:13;6.73;;;4.40;;
11907;SDS011;6014;47.690;9.130;2022-08-23T03:11:43;7.90;;;4.90;;
11907;SDS011;6014;47.690;9.130;2022-08-23T03:14:11;8.30;;;4.43;;
11907;SDS011;6014;47.690;9.130;2022-08-23T03:16:40;6.70;;;4.40;;
11907;SDS011;6014;47.690;9.130;2022-08-23T03:19:09;6.07;;;4.00;;
11907;SDS011;6014;47.690;9.130;2022-08-23T03:21:39;8.07;;;3.90;;
11907;SDS011;6014;47.690;9.130;2022-08-23T03:24:08;7.67;;;4.13;;
11907;SDS011;6014;47.690;9.130;2022-08-23T03:26:40;10.00;;;5.00;;
11907;SDS011;6014;47.690;9.130;2022-08-23T03:29:09;6.43;;;4.30;;
11907;SDS011;6014;47.690;9.130;2022-08-23T03:31:38;9.13;;;4.10;;
11907;SDS011;6014;47.690;9.130;2022-08-23T03:34:08;7.90;;;4.23;;
11907;SDS011;6014;47.690;9.130;2022-08-23T03:36:37;7.43;;;3.87;;
11907;SDS011;6014;47.690;9.130;2022-08-23T03:39:08;6.37;;;4.23;;
11907;SDS011;6014;47.690;9.130;2022-08-23T03:41:36;8.50;;;5.50;;
11907;SDS011;6014;47.690;9.130;2022-08-23T03:44:05;7.57;;;4.53;;
11907;SDS011;6014;47.690;9.130;2022-08-23T03:46:34;6.60;;;4.63;;
11907;SDS011;6014;47.690;9.130;2022-08-23T03:49:03;8.23;;;4.27;;
11907;SDS011;6014;47.690;9.130;2022-08-23T03:51:32;7.50;;;4.67;;
11907;SDS011;6014;47.690;9.130;2022-08-23T03:54:02;9.40;;;4.87;;
11907;SDS011;6014;47.690;9.130;2022-08-23T03:56:34;7.73;;;4.27;;
11907;SDS011;6014;47.690;9.130;2022-08-23T03:59:05;7.93;;;4.77;;
11907;SDS011;6014;47.690;9.130;2022-08-23T04:01:33;7.23;;;4.57;;
11907;SDS011;6014;47.690;9.130;2022-08-23T04:04:02;9.43;;;4.17;;
11907;SDS011;6014;47.690;9.130;2022-08-23T04:06:32;7.03;;;4.20;;
11907;SDS011;6014;47.690;9.130;2022-08-23T04:09:02;7.97;;;4.63;;
11907;SDS011;6014;47.690;9.130;2022-08-23T04:11:32;6.47;;;4.10;;
11907;SDS011;6014;47.690;9.130;2022-08-23T04:14:01;7.87;;;4.47;;
11907;SDS011;6014;47.690;9.130;2022-08-23T04:16:30;7.77;;;4.13;;
11907;SDS011;6014;47.690;9.130;2022-08-23T04:19:03;6.00;;;4.07;;
11907;SDS011;6014;47.690;9.130;2022-08-23T04:21:35;7.53;;;4.13;;
11907;SDS011;6014;47.690;9.130;2022-08-23T04:24:05;8.73;;;4.40;;
11907;SDS011;6014;47.690;9.130;2022-08-23T04:26:35;9.97;;;4.77;;
11907;SDS011;6014;47.690;9.130;2022-08-23T04:29:03;7.10;;;4.20;;
11907;SDS011;6014;47.690;9.130;2022-08-23T04:31:34;9.47;;;4.50;;
11907;SDS011;6014;47.690;9.130;2022-08-23T04:34:04;7.37;;;3.97;;
11907;SDS011;6014;47.690;9.130;2022-08-23T04:36:40;7.40;;;4.57;;
11907;SDS011;6014;47.690;9.130;2022-08-23T04:39:17;10.67;;;4.07;;
11907;SDS011;6014;47.690;9.130;2022-08-23T04:41:46;9.27;;;4.50;;
11907;SDS011;6014;47.690;9.130;2022-08-23T04:44:47;6.87;;;4.40;;
11907;SDS011;6014;47.690;9.130;2022-08-23T04:47:15;7.73;;;4.83;;
11907;SDS011;6014;47.690;9.130;2022-08-23T04:49:45;9.73;;;4.93;;
11907;SDS011;6014;47.690;9.130;2022-08-23T04:52:14;7.37;;;4.30;;
11907;SDS011;6014;47.690;9.130;2022-08-23T04:54:53;7.70;;;4.17;;
11907;SDS011;6014;47.690;9.130;2022-08-23T04:57:23;6.37;;;4.47;;
11907;SDS011;6014;47.690;9.130;2022-08-23T04:59:52;7.90;;;4.37;;
11907;SDS011;6014;47.690;9.130;2022-08-23T05:02:20;6.90;;;4.33;;
11907;SDS011;6014;47.690;9.130;2022-08-23T05:04:48;7.03;;;4.10;;
11907;SDS011;6014;47.690;9.130;2022-08-23T05:07:18;5.73;;;3.73;;
11907;SDS011;6014;47.690;9.130;2022-08-23T05:10:00;7.00;;;4.43;;
11907;SDS011;6014;47.690;9.130;2022-08-23T05:12:30;10.13;;;4.23;;
11907;SDS011;6014;47.690;9.130;2022-08-23T05:14:58;6.87;;;4.17;;
11907;SDS011;6014;47.690;9.130;2022-08-23T05:17:27;6.73;;;4.37;;
11907;SDS011;6014;47.690;9.130;2022-08-23T05:19:56;6.27;;;4.33;;
11907;SDS011;6014;47.690;9.130;2022-08-23T05:22:25;5.80;;;4.33;;
11907;SDS011;6014;47.690;9.130;2022-08-23T05:24:55;7.57;;;4.23;;
11907;SDS011;6014;47.690;9.130;2022-08-23T05:27:23;6.83;;;5.27;;
11907;SDS011;6014;47.690;9.130;2022-08-23T05:29:53;5.83;;;4.00;;
11907;SDS011;6014;47.690;9.130;2022-08-23T05:32:22;6.43;;;3.93;;
11907;SDS011;6014;47.690;9.130;2022-08-23T05:34:56;6.47;;;3.90;;
11907;SDS011;6014;47.690;9.130;2022-08-23T05:37:25;10.27;;;4.20;;
11907;SDS011;6014;47.690;9.130;2022-08-23T05:39:53;7.13;;;4.07;;
11907;SDS011;6014;47.690;9.130;2022-08-23T05:42:22;6.60;;;4.30;;
11907;SDS011;6014;47.690;9.130;2022-08-23T05:44:50;7.67;;;4.10;;
11907;SDS011;6014;47.690;9.130;2022-08-23T05:47:20;6.53;;;4.00;;
11907;SDS011;6014;47.690;9.130;2022-08-23T05:49:52;6.50;;;4.15;;
11907;SDS011;6014;47.690;9.130;2022-08-23T05:52:20;8.10;;;4.20;;
11907;SDS011;6014;47.690;9.130;2022-08-23T05:54:49;8.27;;;4.20;;
11907;SDS011;6014;47.690;9.130;2022-08-23T05:57:17;6.53;;;4.18;;
11907;SDS011;6014;47.690;9.130;2022-08-23T05:59:46;7.85;;;4.22;;
11907;SDS011;6014;47.690;9.130;2022-08-23T06:02:14;6.40;;;3.83;;
11907;SDS011;6014;47.690;9.130;2022-08-23T06:04:44;7.45;;;4.00;;
11907;SDS011;6014;47.690;9.130;2022-08-23T06:07:13;6.13;;;4.17;;
11907;SDS011;6014;47.690;9.130;2022-08-23T06:09:41;11.35;;;4.38;;
11907;SDS011;6014;47.690;9.130;2022-08-23T06:12:10;8.63;;;4.57;;
11907;SDS011;6014;47.690;9.130;2022-08-23T06:14:39;6.40;;;4.47;;
11907;SDS011;6014;47.690;9.130;2022-08-23T06:17:07;9.77;;;4.43;;
11907;SDS011;6014;47.690;9.130;2022-08-23T06:19:37;8.25;;;4.03;;
11907;SDS011;6014;47.690;9.130;2022-08-23T06:22:08;6.55;;;3.78;;
11907;SDS011;6014;47.690;9.130;2022-08-23T06:24:36;6.15;;;3.67;;
11907;SDS011;6014;47.690;9.130;2022-08-23T06:27:04;6.35;;;3.80;;
11907;SDS011;6014;47.690;9.130;2022-08-23T06:29:33;6.47;;;4.07;;
11907;SDS011;6014;47.690;9.130;2022-08-23T06:32:03;8.63;;;4.00;;
11907;SDS011;6014;47.690;9.130;2022-08-23T06:34:34;8.65;;;4.18;;
11907;SDS011;6014;47.690;9.130;2022-08-23T06:37:04;8.55;;;4.00;;
11907;SDS011;6014;47.690;9.130;2022-08-23T06:39:34;7.43;;;4.10;;
11907;SDS011;6014;47.690;9.130;2022-08-23T06:42:04;8.60;;;4.10;;
11907;SDS011;6014;47.690;9.130;2022-08-23T06:44:53;8.35;;;3.75;;
11907;SDS011;6014;47.690;9.130;2022-08-23T06:47:22;6.85;;;4.03;;
11907;SDS011;6014;47.690;9.130;2022-08-23T06:49:50;7.45;;;3.33;;
11907;SDS011;6014;47.690;9.130;2022-08-23T06:52:23;9.35;;;3.65;;
11907;SDS011;6014;47.690;9.130;2022-08-23T06:54:54;8.05;;;3.75;;
11907;SDS011;6014;47.690;9.130;2022-08-23T06:57:23;5.45;;;3.30;;
11907;SDS011;6014;47.690;9.130;2022-08-23T06:59:52;5.85;;;3.38;;
11907;SDS011;6014;47.690;9.130;2022-08-23T07:02:20;5.97;;;3.65;;
11907;SDS011;6014;47.690;9.130;2022-08-23T07:04:49;6.97;;;3.58;;
11907;SDS011;6014;47.690;9.130;2022-08-23T07:07:19;4.93;;;3.25;;
11907;SDS011;6014;47.690;9.130;2022-08-23T07:09:48;7.00;;;4.07;;
11907;SDS011;6014;47.690;9.130;2022-08-23T07:12:18;5.20;;;3.75;;
11907;SDS011;6014;47.690;9.130;2022-08-23T07:14:47;6.88;;;3.75;;
11907;SDS011;6014;47.690;9.130;2022-08-23T07:17:16;6.65;;;3.67;;
11907;SDS011;6014;47.690;9.130;2022-08-23T07:19:44;6.68;;;3.92;;
11907;SDS011;6014;47.690;9.130;2022-08-23T07:22:13;5.07;;;3.42;;
11907;SDS011;6014;47.690;9.130;2022-08-23T07:24:42;5.45;;;3.22;;
11907;SDS011;6014;47.690;9.130;2022-08-23T07:27:11;6.97;;;3.78;;
11907;SDS011;6014;47.690;9.130;2022-08-23T07:29:41;7.35;;;3.47;;
11907;SDS011;6014;47.690;9.130;2022-08-23T07:32:09;6.55;;;3.35;;
11907;SDS011;6014;47.690;9.130;2022-08-23T07:34:37;6.03;;;3.67;;
11907;SDS011;6014;47.690;9.130;2022-08-23T07:37:06;7.20;;;3.50;;
11907;SDS011;6014;47.690;9.130;2022-08-23T07:39:40;6.30;;;3.22;;
11907;SDS011;6014;47.690;9.130;2022-08-23T07:42:10;5.10;;;3.28;;
11907;SDS011;6014;47.690;9.130;2022-08-23T07:44:52;7.18;;;3.30;;
11907;SDS011;6014;47.690;9.130;2022-08-23T07:47:22;8.45;;;3.50;;
11907;SDS011;6014;47.690;9.130;2022-08-23T07:49:50;8.38;;;3.20;;
11907;SDS011;6014;47.690;9.130;2022-08-23T07:52:19;6.43;;;3.10;;
11907;SDS011;6014;47.690;9.130;2022-08-23T07:54:47;7.30;;;3.55;;
11907;SDS011;6014;47.690;9.130;2022-08-23T07:57:16;5.55;;;3.42;;
11907;SDS011;6014;47.690;9.130;2022-08-23T07:59:45;5.43;;;2.95;;
11907;SDS011;6014;47.690;9.130;2022-08-23T08:02:15;5.55;;;3.28;;
11907;SDS011;6014;47.690;9.130;2022-08-23T08:04:44;6.80;;;3.60;;
11907;SDS011;6014;47.690;9.130;2022-08-23T08:07:12;5.93;;;3.30;;
11907;SDS011;6014;47.690;9.130;2022-08-23T08:09:46;6.45;;;3.30;;
11907;SDS011;6014;47.690;9.130;2022-08-23T08:12:15;6.95;;;3.50;;
11907;SDS011;6014;47.690;9.130;2022-08-23T08:14:43;5.85;;;3.55;;
11907;SDS011;6014;47.690;9.130;2022-08-23T08:17:13;7.20;;;3.40;;
11907;SDS011;6014;47.690;9.130;2022-08-23T08:19:43;5.13;;;3.05;;
11907;SDS011;6014;47.690;9.130;2022-08-23T08:22:12;7.35;;;3.10;;
11907;SDS011;6014;47.690;9.130;2022-08-23T08:24:40;5.93;;;3.15;;
11907;SDS011;6014;47.690;9.130;2022-08-23T08:27:09;6.72;;;3.17;;
11907;SDS011;6014;47.690;9.130;2022-08-23T08:29:39;5.30;;;3.05;;
11907;SDS011;6014;47.690;9.130;2022-08-23T08:32:09;9.23;;;3.33;;
11907;SDS011;6014;47.690;9.130;2022-08-23T08:34:41;5.35;;;3.10;;
11907;SDS011;6014;47.690;9.130;2022-08-23T08:37:09;6.07;;;3.30;;
11907;SDS011;6014;47.690;9.130;2022-08-23T08:39:38;5.90;;;3.15;;
11907;SDS011;6014;47.690;9.130;2022-08-23T08:42:18;7.80;;;3.45;;
11907;SDS011;6014;47.690;9.130;2022-08-23T08:44:50;5.63;;;2.88;;
11907;SDS011;6014;47.690;9.130;2022-08-23T08:47:21;5.57;;;2.95;;
11907;SDS011;6014;47.690;9.130;2022-08-23T08:49:55;5.50;;;2.58;;
11907;SDS011;6014;47.690;9.130;2022-08-23T08:52:28;5.43;;;3.30;;
11907;SDS011;6014;47.690;9.130;2022-08-23T08:57:39;5.68;;;3.00;;
11907;SDS011;6014;47.690;9.130;2022-08-23T09:00:09;7.13;;;3.08;;
11907;SDS011;6014;47.690;9.130;2022-08-23T09:02:40;9.52;;;3.03;;
11907;SDS011;6014;47.690;9.130;2022-08-23T09:05:12;5.78;;;2.97;;
11907;SDS011;6014;47.690;9.130;2022-08-23T09:07:44;7.07;;;3.08;;
11907;SDS011;6014;47.690;9.130;2022-08-23T09:10:28;6.50;;;3.03;;
11907;SDS011;6014;47.690;9.130;2022-08-23T09:16:33;5.72;;;2.65;;
11907;SDS011;6014;47.690;9.130;2022-08-23T09:19:11;7.65;;;3.10;;
11907;SDS011;6014;47.690;9.130;2022-08-23T09:21:42;6.85;;;3.03;;
11907;SDS011;6014;47.690;9.130;2022-08-23T09:24:13;6.85;;;2.88;;
11907;SDS011;6014;47.690;9.130;2022-08-23T09:26:41;5.97;;;2.80;;
11907;SDS011;6014;47.690;9.130;2022-08-23T09:29:15;6.47;;;2.83;;
11907;SDS011;6014;47.690;9.130;2022-08-23T09:31:45;8.10;;;2.70;;
11907;SDS011;6014;47.690;9.130;2022-08-23T09:34:18;8.00;;;3.10;;
11907;SDS011;6014;47.690;9.130;2022-08-23T09:36:48;6.35;;;2.95;;
11907;SDS011;6014;47.690;9.130;2022-08-23T09:39:25;7.10;;;2.97;;
11907;SDS011;6014;47.690;9.130;2022-08-23T09:41:56;7.03;;;2.92;;
11907;SDS011;6014;47.690;9.130;2022-08-23T09:44:33;5.65;;;2.92;;
11907;SDS011;6014;47.690;9.130;2022-08-23T09:47:03;8.52;;;2.65;;
11907;SDS011;6014;47.690;9.130;2022-08-23T09:49:32;6.63;;;3.03;;
11907;SDS011;6014;47.690;9.130;2022-08-23T09:52:08;4.97;;;3.03;;
11907;SDS011;6014;47.690;9.130;2022-08-23T09:54:53;5.47;;;2.88;;
11907;SDS011;6014;47.690;9.130;2022-08-23T09:57:22;5.18;;;2.88;;
11907;SDS011;6014;47.690;9.130;2022-08-23T09:59:53;5.13;;;2.78;;
11907;SDS011;6014;47.690;9.130;2022-08-23T10:02:24;5.40;;;2.45;;
11907;SDS011;6014;47.690;9.130;2022-08-23T10:04:57;5.50;;;2.40;;
11907;SDS011;6014;47.690;9.130;2022-08-23T10:07:28;5.68;;;2.20;;
11907;SDS011;6014;47.690;9.130;2022-08-23T10:12:58;4.15;;;2.13;;
11907;SDS011;6014;47.690;9.130;2022-08-23T10:15:32;4.57;;;2.40;;
11907;SDS011;6014;47.690;9.130;2022-08-23T10:18:04;4.25;;;2.25;;
11907;SDS011;6014;47.690;9.130;2022-08-23T10:20:35;4.00;;;1.98;;
11907;SDS011;6014;47.690;9.130;2022-08-23T10:23:14;3.92;;;1.98;;
11907;SDS011;6014;47.690;9.130;2022-08-23T10:25:48;3.42;;;1.80;;
11907;SDS011;6014;47.690;9.130;2022-08-23T10:28:20;4.22;;;1.90;;
11907;SDS011;6014;47.690;9.130;2022-08-23T10:31:12;3.65;;;1.88;;
11907;SDS011;6014;47.690;9.130;2022-08-23T10:33:44;3.78;;;2.00;;
11907;SDS011;6014;47.690;9.130;2022-08-23T10:36:14;5.40;;;2.47;;
11907;SDS011;6014;47.690;9.130;2022-08-23T10:38:46;4.72;;;2.20;;
11907;SDS011;6014;47.690;9.130;2022-08-23T10:41:29;3.88;;;1.95;;
11907;SDS011;6014;47.690;9.130;2022-08-23T10:44:02;3.80;;;1.70;;
11907;SDS011;6014;47.690;9.130;2022-08-23T10:46:36;3.40;;;1.90;;
11907;SDS011;6014;47.690;9.130;2022-08-23T10:49:07;4.15;;;1.80;;
11907;SDS011;6014;47.690;9.130;2022-08-23T10:51:39;5.45;;;1.80;;
11907;SDS011;6014;47.690;9.130;2022-08-23T10:54:12;5.68;;;2.50;;
11907;SDS011;6014;47.690;9.130;2022-08-23T10:56:44;3.95;;;1.88;;
11907;SDS011;6014;47.690;9.130;2022-08-23T10:59:17;4.22;;;1.58;;
11907;SDS011;6014;47.690;9.130;2022-08-23T11:01:49;3.72;;;1.77;;
11907;SDS011;6014;47.690;9.130;2022-08-23T11:04:21;4.25;;;1.92;;
11907;SDS011;6014;47.690;9.130;2022-08-23T11:06:51;6.18;;;1.90;;
11907;SDS011;6014;47.690;9.130;2022-08-23T11:09:29;4.50;;;1.75;;
11907;SDS011;6014;47.690;9.130;2022-08-23T11:12:04;3.53;;;1.83;;
11907;SDS011;6014;47.690;9.130;2022-08-23T11:14:37;3.92;;;1.70;;
11907;SDS011;6014;47.690;9.130;2022-08-23T11:17:07;5.00;;;1.60;;
11907;SDS011;6014;47.690;9.130;2022-08-23T11:19:47;3.80;;;1.65;;
11907;SDS011;6014;47.690;9.130;2022-08-23T11:22:22;3.25;;;1.58;;
11907;SDS011;6014;47.690;9.130;2022-08-23T11:24:53;5.07;;;1.60;;
11907;SDS011;6014;47.690;9.130;2022-08-23T11:27:26;3.30;;;1.50;;
11907;SDS011;6014;47.690;9.130;2022-08-23T11:29:55;2.65;;;1.38;;
11907;SDS011;6014;47.690;9.130;2022-08-23T11:35:21;5.38;;;1.85;;
11907;SDS011;6014;47.690;9.130;2022-08-23T11:37:56;4.25;;;1.80;;
11907;SDS011;6014;47.690;9.130;2022-08-23T11:40:38;3.05;;;1.35;;
11907;SDS011;6014;47.690;9.130;2022-08-23T11:43:09;4.80;;;1.90;;
11907;SDS011;6014;47.690;9.130;2022-08-23T11:45:41;6.85;;;2.10;;
11907;SDS011;6014;47.690;9.130;2022-08-23T11:48:13;3.92;;;1.70;;
11907;SDS011;6014;47.690;9.130;2022-08-23T11:51:01;6.20;;;1.90;;
11907;SDS011;6014;47.690;9.130;2022-08-23T11:56:29;4.05;;;1.77;;
11907;SDS011;6014;47.690;9.130;2022-08-23T11:59:08;5.22;;;1.95;;
11907;SDS011;6014;47.690;9.130;2022-08-23T12:01:40;6.13;;;2.15;;
11907;SDS011;6014;47.690;9.130;2022-08-23T12:04:11;3.45;;;1.70;;
11907;SDS011;6014;47.690;9.130;2022-08-23T12:06:53;2.65;;;1.33;;
11907;SDS011;6014;47.690;9.130;2022-08-23T12:12:24;4.35;;;1.67;;
11907;SDS011;6014;47.690;9.130;2022-08-23T12:14:53;5.00;;;1.70;;
11907;SDS011;6014;47.690;9.130;2022-08-23T12:20:10;4.20;;;1.63;;
11907;SDS011;6014;47.690;9.130;2022-08-23T12:22:51;4.80;;;1.77;;
11907;SDS011;6014;47.690;9.130;2022-08-23T12:25:22;3.40;;;1.50;;
11907;SDS011;6014;47.690;9.130;2022-08-23T12:27:54;5.50;;;1.88;;
11907;SDS011;6014;47.690;9.130;2022-08-23T12:30:25;5.07;;;1.85;;
11907;SDS011;6014;47.690;9.130;2022-08-23T12:33:00;2.70;;;1.48;;
11907;SDS011;6014;47.690;9.130;2022-08-23T12:35:33;4.38;;;1.83;;
11907;SDS011;6014;47.690;9.130;2022-08-23T12:38:07;4.00;;;1.80;;
11907;SDS011;6014;47.690;9.130;2022-08-23T12:40:40;4.00;;;1.65;;
11907;SDS011;6014;47.690;9.130;2022-08-23T12:43:22;4.35;;;1.80;;
11907;SDS011;6014;47.690;9.130;2022-08-23T12:45:52;4.03;;;1.92;;
11907;SDS011;6014;47.690;9.130;2022-08-23T12:48:22;5.10;;;1.92;;
11907;SDS011;6014;47.690;9.130;2022-08-23T12:50:53;5.10;;;2.10;;
11907;SDS011;6014;47.690;9.130;2022-08-23T12:53:25;5.03;;;1.50;;
11907;SDS011;6014;47.690;9.130;2022-08-23T12:55:58;5.13;;;2.03;;
11907;SDS011;6014;47.690;9.130;2022-08-23T12:58:28;4.10;;;1.90;;
11907;SDS011;6014;47.690;9.130;2022-08-23T13:01:00;5.70;;;1.60;;
11907;SDS011;6014;47.690;9.130;2022-08-23T13:03:30;4.78;;;1.70;;
11907;SDS011;6014;47.690;9.130;2022-08-23T13:06:01;5.63;;;2.03;;
11907;SDS011;6014;47.690;9.130;2022-08-23T13:08:30;4.35;;;1.70;;
11907;SDS011;6014;47.690;9.130;2022-08-23T13:11:00;4.32;;;1.90;;
11907;SDS011;6014;47.690;9.130;2022-08-23T13:13:36;5.93;;;2.10;;
11907;SDS011;6014;47.690;9.130;2022-08-23T13:18:52;7.55;;;2.17;;
11907;SDS011;6014;47.690;9.130;2022-08-23T13:21:27;3.55;;;1.63;;
11907;SDS011;6014;47.690;9.130;2022-08-23T13:27:08;4.50;;;1.58;;
11907;SDS011;6014;47.690;9.130;2022-08-23T13:29:48;4.03;;;1.70;;
11907;SDS011;6014;47.690;9.130;2022-08-23T13:37:54;4.25;;;1.40;;
11907;SDS011;6014;47.690;9.130;2022-08-23T13:40:25;4.75;;;1.50;;
11907;SDS011;6014;47.690;9.130;2022-08-23T13:42:56;3.13;;;1.60;;
11907;SDS011;6014;47.690;9.130;2022-08-23T13:45:27;4.25;;;1.65;;
11907;SDS011;6014;47.690;9.130;2022-08-23T13:47:58;3.63;;;1.70;;
11907;SDS011;6014;47.690;9.130;2022-08-23T13:50:28;3.60;;;1.60;;
11907;SDS011;6014;47.690;9.130;2022-08-23T13:52:57;4.07;;;1.50;;
11907;SDS011;6014;47.690;9.130;2022-08-23T13:55:41;2.95;;;1.52;;
11907;SDS011;6014;47.690;9.130;2022-08-23T13:58:11;4.22;;;1.70;;
11907;SDS011;6014;47.690;9.130;2022-08-23T14:00:41;3.33;;;1.58;;
11907;SDS011;6014;47.690;9.130;2022-08-23T14:03:20;4.30;;;1.52;;
11907;SDS011;6014;47.690;9.130;2022-08-23T14:05:49;3.75;;;1.80;;
11907;SDS011;6014;47.690;9.130;2022-08-23T14:08:18;3.63;;;1.73;;
11907;SDS011;6014;47.690;9.130;2022-08-23T14:10:46;5.20;;;1.77;;
11907;SDS011;6014;47.690;9.130;2022-08-23T14:13:15;4.00;;;1.55;;
11907;SDS011;6014;47.690;9.130;2022-08-23T14:15:46;3.30;;;1.50;;
11907;SDS011;6014;47.690;9.130;2022-08-23T14:18:24;3.50;;;1.38;;
11907;SDS011;6014;47.690;9.130;2022-08-23T14:20:52;3.60;;;1.73;;
11907;SDS011;6014;47.690;9.130;2022-08-23T14:23:21;5.03;;;1.80;;
11907;SDS011;6014;47.690;9.130;2022-08-23T14:25:50;3.35;;;1.58;;
11907;SDS011;6014;47.690;9.130;2022-08-23T14:28:21;3.67;;;1.75;;
11907;SDS011;6014;47.690;9.130;2022-08-23T14:31:02;4.68;;;1.55;;
11907;SDS011;6014;47.690;9.130;2022-08-23T14:33:30;4.10;;;1.70;;
11907;SDS011;6014;47.690;9.130;2022-08-23T14:35:59;4.18;;;1.75;;
11907;SDS011;6014;47.690;9.130;2022-08-23T14:38:27;3.15;;;1.58;;
11907;SDS011;6014;47.690;9.130;2022-08-23T14:40:56;7.45;;;1.90;;
11907;SDS011;6014;47.690;9.130;2022-08-23T14:43:26;3.90;;;1.70;;
11907;SDS011;6014;47.690;9.130;2022-08-23T14:45:55;3.80;;;1.67;;
11907;SDS011;6014;47.690;9.130;2022-08-23T14:48:26;3.63;;;1.42;;
11907;SDS011;6014;47.690;9.130;2022-08-23T14:50:55;3.28;;;1.75;;
11907;SDS011;6014;47.690;9.130;2022-08-23T14:53:24;4.55;;;1.70;;
11907;SDS011;6014;47.690;9.130;2022-08-23T14:55:54;4.25;;;1.45;;
11907;SDS011;6014;47.690;9.130;2022-08-23T14:58:42;3.78;;;1.70;;
11907;SDS011;6014;47.690;9.130;2022-08-23T15:01:11;4.40;;;1.80;;
11907;SDS011;6014;47.690;9.130;2022-08-23T15:03:41;6.70;;;1.60;;
11907;SDS011;6014;47.690;9.130;2022-08-23T15:06:10;5.15;;;1.60;;
11907;SDS011;6014;47.690;9.130;2022-08-23T15:08:39;4.57;;;1.67;;
11907;SDS011;6014;47.690;9.130;2022-08-23T15:11:07;3.60;;;1.65;;
11907;SDS011;6014;47.690;9.130;2022-08-23T15:13:56;3.10;;;1.55;;
11907;SDS011;6014;47.690;9.130;2022-08-23T15:16:26;5.43;;;1.60;;
11907;SDS011;6014;47.690;9.130;2022-08-23T15:18:58;4.07;;;1.45;;
11907;SDS011;6014;47.690;9.130;2022-08-23T15:21:27;3.00;;;1.45;;
11907;SDS011;6014;47.690;9.130;2022-08-23T15:23:55;3.63;;;1.60;;
11907;SDS011;6014;47.690;9.130;2022-08-23T15:26:26;3.85;;;1.73;;
11907;SDS011;6014;47.690;9.130;2022-08-23T15:28:56;3.63;;;1.50;;
11907;SDS011;6014;47.690;9.130;2022-08-23T15:31:26;3.30;;;1.55;;
11907;SDS011;6014;47.690;9.130;2022-08-23T15:33:55;4.32;;;1.60;;
11907;SDS011;6014;47.690;9.130;2022-08-23T15:36:25;4.57;;;1.70;;
11907;SDS011;6014;47.690;9.130;2022-08-23T15:38:54;3.28;;;1.50;;
11907;SDS011;6014;47.690;9.130;2022-08-23T15:41:22;3.17;;;1.40;;
11907;SDS011;6014;47.690;9.130;2022-08-23T15:43:51;3.33;;;1.45;;
11907;SDS011;6014;47.690;9.130;2022-08-23T15:46:21;3.42;;;1.48;;
11907;SDS011;6014;47.690;9.130;2022-08-23T15:48:52;3.63;;;1.50;;
11907;SDS011;6014;47.690;9.130;2022-08-23T15:51:21;5.93;;;1.50;;
11907;SDS011;6014;47.690;9.130;2022-08-23T15:53:51;4.80;;;1.65;;
11907;SDS011;6014;47.690;9.130;2022-08-23T15:56:23;3.38;;;1.50;;